Key West Nas, Boca Chica Field, Airport Key West US
ICAO: KNQX
IATA: NQX
Category: Medium
Scheduled Services: No

Elevation: 6 ft
TransAlt. 18000 ft.

Airport Communications:
APP DEP:119.25
ATIS:27.72
CLNC DEL:121.2
GND:121.7
BASE OPS:33.8
PMSV METRO:34.46
TWR:126.1

KNQX Zoom In..

If you have problems with the map follow the link
https://www.worldairports.se/pages/airport.php?
ICAO=KNQX

Runways:

(A) RW 03 length 7002 ft width 150 ft
---- / hdg 34

(B) RW 07 length 10001 ft width 200 ft
---- / hdg 75

(C) RW 13 length 7001 ft width 150 ft
---- / hdg 133

(D) RW 21 length 7002 ft width 150 ft
---- / hdg 214

(E) RW 25 length 10001 ft width 200 ft
---- / hdg 255

(F) RW 31 length 7001 ft width 150 ft
---- / hdg 313

Location; KNQX
Day. 14 / Time. 20.53 Zulu
* Altimeter: 29.98
* Temperature: 28° c. 82.4°f.
* Wind from: 140° Speed 11 kn.
Dewpoint: 23° c.
Visibility: 10 Statute Miles.
Clouds: Few 2500 ft.
Clouds: Broken 15000 ft.
Clouds: Broken 25000 ft.

KNQX 142053Z 14011KT 10SM FEW025 BKN150 BKN250 28/23 A2998 RMK AO2 SLP150 T02780228 56010


Wind From 140°
Speed 11 kn.

 
 
jpsmedia.com for Web Design worldairports.se 2018   terms of use